createdAt,value
2019-04-25T00:02:26.799Z,2.03
2019-04-25T00:04:57.336Z,2.90
2019-04-25T00:07:33.621Z,0.80
2019-04-25T00:10:07.019Z,1.17
2019-04-25T00:12:43.043Z,1.30
2019-04-25T00:15:13.009Z,0.77
2019-04-25T00:17:44.656Z,1.33
2019-04-25T00:20:15.290Z,0.80
2019-04-25T00:23:07.139Z,0.63
2019-04-25T00:26:05.813Z,1.70
2019-04-25T00:28:37.524Z,1.47
2019-04-25T00:31:09.133Z,1.50
2019-04-25T00:33:41.956Z,0.73
2019-04-25T00:36:15.283Z,1.80
2019-04-25T00:38:49.271Z,0.63
2019-04-25T00:41:21.372Z,1.40
2019-04-25T00:43:52.641Z,1.03
2019-04-25T00:46:23.551Z,2.70
2019-04-25T00:48:54.042Z,2.53
2019-04-25T00:51:24.475Z,1.13
2019-04-25T00:53:55.097Z,1.30
2019-04-25T00:56:25.635Z,3.67
2019-04-25T00:59:15.369Z,1.03
2019-04-25T01:02:31.515Z,1.60
2019-04-25T01:05:02.329Z,2.30
2019-04-25T01:07:34.429Z,1.40
2019-04-25T01:10:05.987Z,1.00
2019-04-25T01:12:36.779Z,1.57
2019-04-25T01:15:09.447Z,2.90
2019-04-25T01:17:41.333Z,0.60
2019-04-25T01:20:12.074Z,0.67
2019-04-25T01:22:44.048Z,1.83
2019-04-25T01:25:14.642Z,6.43
2019-04-25T01:27:46.085Z,2.43
2019-04-25T01:30:18.792Z,2.90
2019-04-25T01:32:49.246Z,0.47
2019-04-25T01:35:31.327Z,1.07
2019-04-25T01:38:26.103Z,2.77
2019-04-25T01:41:18.668Z,0.50
2019-04-25T01:43:56.907Z,1.23
2019-04-25T01:46:28.047Z,2.00
2019-04-25T01:48:59.758Z,2.13
2019-04-25T01:51:30.437Z,2.10
2019-04-25T01:54:14.562Z,2.03
2019-04-25T01:56:44.990Z,1.43
2019-04-25T01:59:15.857Z,2.70
2019-04-25T02:01:46.350Z,1.27
2019-04-25T02:04:16.800Z,1.57
2019-04-25T02:06:47.225Z,0.97
2019-04-25T02:09:17.683Z,1.90
2019-04-25T02:11:56.801Z,1.27
2019-04-25T02:14:27.370Z,3.73
2019-04-25T02:16:58.446Z,2.07
2019-04-25T02:19:29.038Z,1.67
2019-04-25T02:21:59.931Z,1.17
2019-04-25T02:24:30.395Z,0.83
2019-04-25T02:27:01.192Z,2.37
2019-04-25T02:29:33.300Z,0.90
2019-04-25T02:32:08.847Z,2.13
2019-04-25T02:34:36.161Z,2.87
2019-04-25T02:37:09.474Z,4.90
2019-04-25T02:39:39.753Z,0.60
2019-04-25T02:42:10.235Z,2.40
2019-04-25T02:44:45.158Z,1.70
2019-04-25T02:47:46.608Z,1.50
2019-04-25T02:50:35.130Z,1.03
2019-04-25T02:53:15.070Z,1.90
2019-04-25T02:55:46.085Z,1.27
2019-04-25T02:58:17.100Z,2.40
2019-04-25T03:00:57.210Z,1.20
2019-04-25T03:03:20.144Z,1.17
2019-04-25T03:05:52.290Z,1.53
2019-04-25T03:08:24.382Z,1.83
2019-04-25T03:10:54.988Z,1.40
2019-04-25T03:13:25.483Z,3.07
2019-04-25T03:15:55.978Z,1.50
2019-04-25T03:18:28.134Z,1.23
2019-04-25T03:21:10.094Z,3.03
2019-04-25T03:23:42.777Z,1.30
2019-04-25T03:26:14.152Z,3.63
2019-04-25T03:28:44.807Z,1.40
2019-04-25T03:31:21.967Z,1.20
2019-04-25T03:33:47.412Z,0.90
2019-04-25T03:36:17.902Z,2.10
2019-04-25T03:38:49.386Z,1.47
2019-04-25T03:41:19.848Z,0.90
2019-04-25T03:43:50.288Z,1.07
2019-04-25T03:46:20.775Z,3.77
2019-04-25T03:48:51.187Z,1.60
2019-04-25T03:51:21.674Z,1.60
2019-04-25T03:53:53.564Z,1.20
2019-04-25T03:56:24.908Z,3.03
2019-04-25T03:58:55.505Z,5.50
2019-04-25T04:01:28.413Z,1.50
2019-04-25T04:03:59.181Z,1.93
2019-04-25T04:06:29.663Z,1.57
2019-04-25T04:09:05.506Z,2.97
2019-04-25T04:11:36.712Z,0.73
2019-04-25T04:14:07.189Z,2.10
2019-04-25T04:16:41.191Z,1.33
2019-04-25T04:19:11.693Z,1.23
2019-04-25T04:21:53.204Z,2.60
2019-04-25T04:24:44.076Z,1.53
2019-04-25T04:27:18.155Z,2.83
2019-04-25T04:29:48.910Z,3.63
2019-04-25T04:32:20.625Z,1.20
2019-04-25T04:34:51.106Z,3.40
2019-04-25T04:37:21.562Z,6.37
2019-04-25T04:39:53.478Z,2.60
2019-04-25T04:42:27.347Z,5.83
2019-04-25T04:45:00.787Z,3.23
2019-04-25T04:47:33.241Z,2.07
2019-04-25T04:50:04.020Z,2.80
2019-04-25T04:52:36.347Z,2.37
2019-04-25T04:55:09.769Z,2.97
2019-04-25T04:57:39.521Z,1.47
2019-04-25T05:00:10.952Z,2.43
2019-04-25T05:03:14.617Z,2.50
2019-04-25T05:06:07.311Z,2.90
2019-04-25T05:08:46.552Z,2.70
2019-04-25T05:11:26.717Z,2.87
2019-04-25T05:14:04.010Z,4.00
2019-04-25T05:16:34.714Z,6.53
2019-04-25T05:19:05.223Z,3.20
2019-04-25T05:21:35.704Z,4.03
2019-04-25T05:24:06.725Z,2.17
2019-04-25T05:26:37.226Z,3.23
2019-04-25T05:29:08.086Z,2.27
2019-04-25T05:31:50.547Z,2.80
2019-04-25T05:34:25.806Z,7.37
2019-04-25T05:36:58.202Z,2.97
2019-04-25T05:39:33.396Z,5.07
2019-04-25T05:42:25.779Z,8.67
2019-04-25T05:44:59.670Z,4.00
2019-04-25T05:47:33.401Z,5.23
2019-04-25T05:50:04.200Z,2.50
2019-04-25T05:52:37.707Z,4.47
2019-04-25T05:55:10.949Z,4.60
2019-04-25T05:57:47.781Z,2.87
2019-04-25T06:00:15.110Z,2.93
2019-04-25T06:02:46.195Z,5.53
2019-04-25T06:05:21.120Z,11.47
2019-04-25T06:07:51.675Z,3.63
2019-04-25T06:10:34.286Z,3.83
2019-04-25T06:13:29.941Z,4.77
2019-04-25T06:16:05.466Z,6.47
2019-04-25T06:18:55.012Z,3.17
2019-04-25T06:21:25.699Z,3.37
2019-04-25T06:24:19.142Z,2.03
2019-04-25T06:27:01.796Z,3.57
2019-04-25T06:29:34.799Z,1.57
2019-04-25T06:32:08.517Z,4.07
2019-04-25T06:34:38.549Z,5.30
2019-04-25T06:37:09.046Z,3.67
2019-04-25T06:39:41.993Z,4.23
2019-04-25T06:42:13.828Z,2.90
2019-04-25T06:44:53.557Z,4.90
2019-04-25T06:47:44.298Z,6.77
2019-04-25T06:50:16.773Z,2.57
2019-04-25T06:52:51.591Z,3.70
2019-04-25T06:55:23.667Z,4.90
2019-04-25T06:57:54.577Z,3.73
2019-04-25T07:00:29.594Z,5.10
2019-04-25T07:03:24.896Z,6.27
2019-04-25T07:05:55.676Z,4.07
2019-04-25T07:08:29.174Z,3.17
2019-04-25T07:11:01.219Z,6.30
2019-04-25T07:13:39.836Z,3.90
2019-04-25T07:16:11.449Z,2.47
2019-04-25T07:18:53.337Z,2.30
2019-04-25T07:21:24.865Z,5.37
2019-04-25T07:24:00.115Z,2.27
2019-04-25T07:26:58.220Z,2.10
2019-04-25T07:29:56.736Z,2.17
2019-04-25T07:32:37.304Z,4.13
2019-04-25T07:35:10.816Z,3.67
2019-04-25T07:37:44.179Z,2.77
2019-04-25T07:40:17.171Z,4.83
2019-04-25T07:43:04.893Z,1.03
2019-04-25T07:45:38.865Z,1.93
2019-04-25T07:48:09.427Z,1.90
2019-04-25T07:50:40.254Z,2.40
2019-04-25T07:53:10.724Z,4.50
2019-04-25T07:55:43.191Z,3.63
2019-04-25T07:58:21.663Z,3.07
2019-04-25T08:00:51.392Z,3.30
2019-04-25T08:03:23.760Z,3.57
2019-04-25T08:05:54.316Z,2.63
2019-04-25T08:08:24.792Z,1.93
2019-04-25T08:11:01.620Z,2.87
2019-04-25T08:13:49.860Z,3.17
2019-04-25T08:16:23.321Z,3.40
2019-04-25T08:18:56.860Z,1.87
2019-04-25T08:21:34.069Z,2.00
2019-04-25T08:24:09.242Z,1.13
2019-04-25T08:26:39.771Z,1.67
2019-04-25T08:29:10.279Z,2.43
2019-04-25T08:31:44.024Z,2.43
2019-04-25T08:34:15.425Z,2.83
2019-04-25T08:36:46.722Z,3.73
2019-04-25T08:39:18.191Z,2.10
2019-04-25T08:41:51.556Z,3.73
2019-04-25T08:44:24.149Z,2.73
2019-04-25T08:46:55.131Z,2.60
2019-04-25T08:49:50.707Z,2.03
2019-04-25T08:52:21.126Z,3.60
2019-04-25T08:55:06.953Z,2.80
2019-04-25T08:58:17.555Z,1.77
2019-04-25T09:01:11.363Z,1.53
2019-04-25T09:03:48.703Z,1.10
2019-04-25T09:06:21.502Z,2.37
2019-04-25T09:08:53.934Z,2.33
2019-04-25T09:11:32.403Z,1.57
2019-04-25T09:14:04.350Z,3.80
2019-04-25T09:16:36.596Z,1.03
2019-04-25T09:19:10.279Z,2.47
2019-04-25T09:21:46.092Z,1.50
2019-04-25T09:24:20.159Z,2.73
2019-04-25T09:26:50.679Z,2.37
2019-04-25T09:29:26.982Z,0.93
2019-04-25T09:31:58.754Z,1.97
2019-04-25T09:34:36.889Z,1.97
2019-04-25T09:37:04.249Z,2.90
2019-04-25T09:39:46.353Z,1.10
2019-04-25T09:42:17.156Z,2.53
2019-04-25T09:45:15.908Z,3.33
2019-04-25T09:47:47.958Z,1.43
2019-04-25T09:50:45.440Z,3.03
2019-04-25T09:53:24.330Z,2.07
2019-04-25T09:56:33.796Z,1.93
2019-04-25T09:59:27.212Z,1.87
2019-04-25T10:01:56.656Z,1.70
2019-04-25T10:04:35.619Z,2.07
2019-04-25T10:07:06.394Z,3.03
2019-04-25T10:09:38.446Z,1.33
2019-04-25T10:12:17.968Z,2.13
2019-04-25T10:15:25.964Z,1.40
2019-04-25T10:17:56.698Z,2.80
2019-04-25T10:20:30.302Z,4.80
2019-04-25T10:23:00.880Z,1.83
2019-04-25T10:25:43.841Z,3.87
2019-04-25T10:28:16.478Z,4.03
2019-04-25T10:30:53.097Z,1.87
2019-04-25T10:33:28.017Z,1.43
2019-04-25T10:36:01.022Z,1.87
2019-04-25T10:39:06.698Z,3.50
2019-04-25T10:41:28.889Z,1.27
2019-04-25T10:44:00.711Z,3.33
2019-04-25T10:46:35.716Z,0.80
2019-04-25T10:49:06.190Z,0.93
2019-04-25T10:51:40.794Z,1.37
2019-04-25T10:54:11.745Z,4.20
2019-04-25T10:56:42.303Z,3.77
2019-04-25T10:59:15.897Z,4.00
2019-04-25T11:01:47.293Z,1.03
2019-04-25T11:04:30.084Z,1.63
2019-04-25T11:07:00.532Z,1.23
2019-04-25T11:09:31.323Z,3.23
2019-04-25T11:12:04.079Z,2.17
2019-04-25T11:14:34.777Z,2.00
2019-04-25T11:17:06.795Z,2.03
2019-04-25T11:19:40.082Z,1.63
2019-04-25T11:22:17.192Z,3.47
2019-04-25T11:24:50.650Z,1.97
2019-04-25T11:27:21.830Z,5.23
2019-04-25T11:30:08.443Z,4.50
2019-04-25T11:32:33.930Z,1.50
2019-04-25T11:35:05.097Z,2.03
2019-04-25T11:37:36.169Z,1.30
2019-04-25T11:40:25.951Z,3.50
2019-04-25T11:42:56.599Z,1.50
2019-04-25T11:45:27.108Z,1.57
2019-04-25T11:47:57.682Z,3.13
2019-04-25T11:50:31.214Z,4.23
2019-04-25T11:53:24.744Z,4.40
2019-04-25T11:55:56.765Z,1.97
2019-04-25T11:58:45.686Z,2.13
2019-04-25T12:01:17.568Z,1.20
2019-04-25T12:03:56.468Z,4.27
2019-04-25T12:06:27.166Z,1.60
2019-04-25T12:09:04.109Z,5.10
2019-04-25T12:11:43.534Z,3.23
2019-04-25T12:14:07.364Z,1.70
2019-04-25T12:16:38.268Z,1.47
2019-04-25T12:19:17.005Z,1.37
2019-04-25T12:21:48.184Z,3.33
2019-04-25T12:24:31.290Z,1.93
2019-04-25T12:27:04.310Z,1.77
2019-04-25T12:29:34.955Z,3.13
2019-04-25T12:32:07.085Z,3.40
2019-04-25T12:34:40.114Z,1.83
2019-04-25T12:37:17.803Z,1.77
2019-04-25T12:39:48.859Z,3.17
2019-04-25T12:42:19.917Z,2.43
2019-04-25T12:45:05.644Z,2.37
2019-04-25T12:47:48.605Z,1.87
2019-04-25T12:50:23.098Z,1.33
2019-04-25T12:52:58.103Z,2.13
2019-04-25T12:55:31.100Z,3.10
2019-04-25T12:58:05.962Z,3.57
2019-04-25T13:00:51.185Z,4.73
2019-04-25T13:03:24.155Z,6.40
2019-04-25T13:05:54.805Z,1.50
2019-04-25T13:08:27.171Z,2.80
2019-04-25T13:11:07.539Z,1.13
2019-04-25T13:13:29.744Z,6.60
2019-04-25T13:16:05.422Z,2.40
2019-04-25T13:18:35.560Z,1.23
2019-04-25T13:21:11.159Z,1.43
2019-04-25T13:23:41.605Z,7.93
2019-04-25T13:26:12.521Z,1.50
2019-04-25T13:29:12.250Z,3.20
2019-04-25T13:32:16.946Z,3.20
2019-04-25T13:34:58.751Z,2.80
2019-04-25T13:37:29.396Z,1.03
2019-04-25T13:40:00.559Z,1.63
2019-04-25T13:42:33.356Z,4.27
2019-04-25T13:45:05.162Z,3.70
2019-04-25T13:47:37.775Z,4.03
2019-04-25T13:50:14.575Z,6.40
2019-04-25T13:52:43.844Z,2.63
2019-04-25T13:55:14.730Z,1.60
2019-04-25T13:57:51.386Z,3.13
2019-04-25T14:00:31.385Z,2.00
2019-04-25T14:03:01.949Z,1.40
2019-04-25T14:05:53.982Z,1.50
2019-04-25T14:08:27.260Z,2.33
2019-04-25T14:10:59.097Z,4.07
2019-04-25T14:13:32.730Z,3.73
2019-04-25T14:16:27.024Z,7.53
2019-04-25T14:19:19.102Z,4.17
2019-04-25T14:21:56.856Z,4.70
2019-04-25T14:24:30.527Z,5.40
2019-04-25T14:27:01.084Z,4.47
2019-04-25T14:29:33.171Z,4.87
2019-04-25T14:32:05.887Z,5.27
2019-04-25T14:34:36.362Z,5.27
2019-04-25T14:37:09.092Z,3.10
2019-04-25T14:39:40.693Z,1.63
2019-04-25T14:42:37.231Z,3.27
2019-04-25T14:45:14.313Z,4.90
2019-04-25T14:47:48.202Z,5.17
2019-04-25T14:50:20.339Z,1.83
2019-04-25T14:52:50.807Z,3.30
2019-04-25T14:55:43.042Z,2.60
2019-04-25T14:58:16.705Z,4.17
2019-04-25T15:00:54.104Z,4.30
2019-04-25T15:03:27.637Z,6.17
2019-04-25T15:06:01.127Z,3.07
2019-04-25T15:08:32.718Z,3.57
2019-04-25T15:11:05.720Z,2.10
2019-04-25T15:13:39.184Z,3.10
2019-04-25T15:16:10.276Z,3.20
2019-04-25T15:18:46.976Z,4.53
2019-04-25T15:21:18.621Z,6.33
2019-04-25T15:23:59.551Z,6.73
2019-04-25T15:26:21.548Z,18.47
2019-04-25T15:28:58.113Z,6.50
2019-04-25T15:31:30.109Z,3.77
2019-04-25T15:34:08.305Z,5.97
2019-04-25T15:36:45.003Z,3.47
2019-04-25T15:39:35.283Z,4.93
2019-04-25T15:42:32.102Z,5.40
2019-04-25T15:45:22.250Z,3.77
2019-04-25T15:47:57.354Z,3.07
2019-04-25T15:50:30.235Z,3.57
2019-04-25T15:53:00.947Z,6.00
2019-04-25T15:55:32.087Z,5.97
2019-04-25T15:58:02.845Z,7.80
2019-04-25T16:00:49.779Z,5.83
2019-04-25T16:03:22.255Z,9.20
2019-04-25T16:05:56.234Z,5.73
2019-04-25T16:08:31.262Z,2.70
2019-04-25T16:11:05.151Z,2.67
2019-04-25T16:13:38.622Z,9.27
2019-04-25T16:16:09.140Z,2.60
2019-04-25T16:18:41.188Z,7.00
2019-04-25T16:21:11.849Z,4.37
2019-04-25T16:23:45.488Z,3.60
2019-04-25T16:26:16.321Z,4.03
2019-04-25T16:28:47.280Z,3.80
2019-04-25T16:31:22.918Z,3.60
2019-04-25T16:34:00.284Z,4.53
2019-04-25T16:36:32.588Z,2.63
2019-04-25T16:39:08.191Z,2.93
2019-04-25T16:41:42.597Z,4.63
2019-04-25T16:44:18.641Z,2.80
2019-04-25T16:46:49.200Z,2.43
2019-04-25T16:49:24.747Z,2.77
2019-04-25T16:51:55.213Z,2.97
2019-04-25T16:54:29.282Z,4.53
2019-04-25T16:56:59.568Z,2.37
2019-04-25T16:59:30.048Z,2.53
2019-04-25T17:02:04.131Z,5.97
2019-04-25T17:04:35.410Z,3.93
2019-04-25T17:07:09.342Z,3.33
2019-04-25T17:09:42.837Z,6.27
2019-04-25T17:12:14.359Z,4.80
2019-04-25T17:15:04.252Z,3.87
2019-04-25T17:17:48.755Z,7.07
2019-04-25T17:20:30.766Z,5.50
2019-04-25T17:23:10.650Z,4.73
2019-04-25T17:25:38.302Z,3.07
2019-04-25T17:28:13.226Z,2.43
2019-04-25T17:30:45.895Z,3.17
2019-04-25T17:33:24.455Z,4.13
2019-04-25T17:36:13.793Z,5.77
2019-04-25T17:38:55.493Z,2.37
2019-04-25T17:41:26.106Z,5.00
2019-04-25T17:44:04.870Z,6.30
2019-04-25T17:46:42.876Z,9.70
2019-04-25T17:49:16.703Z,4.93
2019-04-25T17:52:02.133Z,10.93
2019-04-25T17:54:32.952Z,26.37
2019-04-25T17:57:06.922Z,70.40
2019-04-25T17:59:37.675Z,26.93
2019-04-25T18:02:13.232Z,4.90
2019-04-25T18:04:51.218Z,6.40
2019-04-25T18:07:39.985Z,8.30
2019-04-25T18:10:12.868Z,4.87
2019-04-25T18:12:44.334Z,7.03
2019-04-25T18:15:27.777Z,3.50
2019-04-25T18:18:05.976Z,3.80
2019-04-25T18:20:43.064Z,11.00
2019-04-25T18:23:24.722Z,6.47
2019-04-25T18:26:27.860Z,6.73
2019-04-25T18:29:36.045Z,10.10
2019-04-25T18:31:44.268Z,4.93
2019-04-25T18:34:37.465Z,5.33
2019-04-25T18:37:33.842Z,6.00
2019-04-25T18:40:36.621Z,5.07
2019-04-25T18:43:18.798Z,6.17
2019-04-25T18:45:56.487Z,5.03
2019-04-25T18:48:31.364Z,7.53
2019-04-25T18:51:12.294Z,3.87
2019-04-25T18:54:24.192Z,15.83
2019-04-25T18:57:11.669Z,8.57
2019-04-25T18:59:48.347Z,6.90
2019-04-25T19:02:56.089Z,5.93
2019-04-25T19:05:51.554Z,7.77
2019-04-25T19:08:30.456Z,6.57
2019-04-25T19:11:10.044Z,6.70
2019-04-25T19:13:49.240Z,6.93
2019-04-25T19:16:22.204Z,7.47
2019-04-25T19:19:17.102Z,7.43
2019-04-25T19:21:53.103Z,7.67
2019-04-25T19:24:23.740Z,6.97
2019-04-25T19:26:54.429Z,5.83
2019-04-25T19:29:25.079Z,9.87
2019-04-25T19:32:10.437Z,7.53
2019-04-25T19:34:42.589Z,5.13
2019-04-25T19:37:16.248Z,6.63
2019-04-25T19:39:57.851Z,8.17
2019-04-25T19:42:51.660Z,7.47
2019-04-25T19:45:23.334Z,6.90
2019-04-25T19:47:55.369Z,8.23
2019-04-25T19:50:31.389Z,7.37
2019-04-25T19:53:10.156Z,9.57
2019-04-25T19:55:43.531Z,9.60
2019-04-25T19:58:14.343Z,9.77
2019-04-25T20:00:48.647Z,9.03
2019-04-25T20:03:49.612Z,7.77
2019-04-25T20:06:45.434Z,11.57
2019-04-25T20:09:46.951Z,9.70
2019-04-25T20:12:19.702Z,9.43
2019-04-25T20:14:51.290Z,7.67
2019-04-25T20:17:23.207Z,8.73
2019-04-25T20:19:56.265Z,7.03
2019-04-25T20:22:33.078Z,10.50
2019-04-25T20:25:08.577Z,6.93
2019-04-25T20:27:42.945Z,6.27
2019-04-25T20:30:15.072Z,4.87
2019-04-25T20:32:54.109Z,14.50
2019-04-25T20:35:29.080Z,7.27
2019-04-25T20:38:01.748Z,9.80
2019-04-25T20:40:43.590Z,8.20
2019-04-25T20:43:14.632Z,7.80
2019-04-25T20:45:52.421Z,6.90
2019-04-25T20:48:25.266Z,7.77
2019-04-25T20:50:57.650Z,6.13
2019-04-25T20:53:30.100Z,10.33
2019-04-25T20:56:03.100Z,7.20
2019-04-25T20:58:34.851Z,5.10
2019-04-25T21:01:09.253Z,8.07
2019-04-25T21:03:43.782Z,7.03
2019-04-25T21:06:35.191Z,7.67
2019-04-25T21:09:07.031Z,7.80
2019-04-25T21:11:39.144Z,10.43
2019-04-25T21:14:49.243Z,10.17
2019-04-25T21:17:38.191Z,11.17
2019-04-25T21:20:09.361Z,10.00
2019-04-25T21:22:40.012Z,9.93
2019-04-25T21:25:15.157Z,9.03
2019-04-25T21:27:47.418Z,10.57
2019-04-25T21:30:17.868Z,8.97
2019-04-25T21:32:53.674Z,9.37
2019-04-25T21:35:29.911Z,11.37
2019-04-25T21:38:02.193Z,7.53
2019-04-25T21:40:55.996Z,8.20
2019-04-25T21:43:31.764Z,11.30
2019-04-25T21:46:06.883Z,7.50
2019-04-25T21:48:38.102Z,7.47
2019-04-25T21:51:26.351Z,10.57
2019-04-25T21:53:59.278Z,8.77
2019-04-25T21:56:37.371Z,8.17
2019-04-25T21:59:10.293Z,9.33
2019-04-25T22:01:44.356Z,6.40
2019-04-25T22:04:18.107Z,5.60
2019-04-25T22:06:48.841Z,8.40
2019-04-25T22:09:28.260Z,8.03
2019-04-25T22:11:59.367Z,5.90
2019-04-25T22:14:32.515Z,9.70
2019-04-25T22:17:03.907Z,6.37
2019-04-25T22:19:35.180Z,3.90
2019-04-25T22:22:06.792Z,9.70
2019-04-25T22:24:38.418Z,4.90
2019-04-25T22:27:13.637Z,4.10
2019-04-25T22:29:48.529Z,9.23
2019-04-25T22:32:34.835Z,4.27
2019-04-25T22:35:24.304Z,8.83
2019-04-25T22:37:56.113Z,7.10
2019-04-25T22:40:29.737Z,6.13
2019-04-25T22:43:12.608Z,6.10
2019-04-25T22:45:50.209Z,7.27
2019-04-25T22:48:26.324Z,6.10
2019-04-25T22:51:00.486Z,7.13
2019-04-25T22:53:36.443Z,8.00
2019-04-25T22:56:12.169Z,6.60
2019-04-25T22:58:43.418Z,6.40
2019-04-25T23:01:25.692Z,8.07
2019-04-25T23:04:13.773Z,8.13
2019-04-25T23:06:48.719Z,9.20
2019-04-25T23:09:32.476Z,9.07
2019-04-25T23:12:09.653Z,5.27
2019-04-25T23:14:48.221Z,7.23
2019-04-25T23:17:24.431Z,8.73
2019-04-25T23:19:56.845Z,10.17
2019-04-25T23:22:27.715Z,9.17
2019-04-25T23:25:05.965Z,8.80
2019-04-25T23:28:03.629Z,5.97
2019-04-25T23:30:40.610Z,4.03
2019-04-25T23:33:11.066Z,6.93
2019-04-25T23:35:42.524Z,6.00
2019-04-25T23:38:18.053Z,5.27
2019-04-25T23:40:48.470Z,5.27
2019-04-25T23:43:19.046Z,10.07
2019-04-25T23:45:49.488Z,7.87
2019-04-25T23:48:20.151Z,6.90
2019-04-25T23:50:53.540Z,4.93
2019-04-25T23:53:23.809Z,6.93
2019-04-25T23:55:54.289Z,9.20
2019-04-25T23:58:24.795Z,6.60
